Parkersburg, IL

1:18 AM CST on December 08, 2016 (GMT -0600)
| | Change Station

Elev -9999 ft 0.00 °N, 0.00 °E | Updated 0 second ago

Overcast
Overcast
70 °F
Feels Like 70 °F
N
6
Wind Variable Wind from SSE
Gusts mph

Today
High -- | Low -- °F
--% Chance of Precip.
Yesterday
High -- | Low -- °F
Precip. -- in
Pressure 30.31 in
Visibility 10.0 miles
Clouds Overcast 9000 ft
Dew Point 69 °F
Humidity 96%
Rainfall --
Snow Depth Not available.
6:57 AM 4:31 PM
First Quarter, 60% visible
METAR KOLY 080655Z AUTO 30015G20KT 10SM OVC090 M01/M06 A3031 RMK AO2
Pressure 30.31 in
Visibility 10.0 miles
Clouds Overcast 9000 ft
Dew Point 69 °F
Humidity 96%
Rainfall --
Snow Depth Not available.
6:57 AM 4:31 PM
First Quarter, 60% visible
METAR KOLY 080655Z AUTO 30015G20KT 10SM OVC090 M01/M06 A3031 RMK AO2

10-Day Weather Forecast

Almanac

Astronomy

Dec. 08, 2016 Rise Set
Actual Time
Civil Twilight
Nautical Twilight
Astronomical Twilight
Moon
Length of Visible Light
Length of Day
Tomorrow will be .
, % of the Moon is Illuminated

Today's Extremes

State Highs State Lows

Community

WunderPhotos

Upload Photos

1,956,259 photos uploaded!

WunderBlog® & News

Nearby

Air Quality

  Air Quality AQ Index Pollutant
Not available.

Snow Depth

Station Depth Elevation

Earthquake Activity

City Distance Mag. Time & Date
Minimum magnitude displayed is 2.5.

Coastal Water Temperatures

Place Temperature

Stations

Nearby Weather Stations

Station Location Temp. Windchill Dew Point Humidity Wind Precip. Elev Updated Type
                   

Watches & Warnings

There are currently no watches in effect.